Time;durP1;ratioP1;P1;durP2;ratioP2;P2;SDS_P1;SDS_P2;PMS_P1;PMS_P2;Temp;Humidity;BMP_temperature;BMP_pressure;BME280_temperature;BME280_humidity;BME280_pressure;Samples;Min_cycle;Max_cycle;Signal;HPM_P1;HPM_P2
2023/09/29 00:00:35;;;;;;;5.05;2.60;;;10.60;99.90;;;;;;5033792;28;20481;-76
2023/09/29 00:03:02;;;;;;;4.82;2.33;;;10.60;99.90;;;;;;5033977;28;20036;-75
2023/09/29 00:05:28;;;;;;;5.00;2.60;;;10.60;99.90;;;;;;5033718;28;20029;-75
2023/09/29 00:07:57;;;;;;;4.03;2.17;;;10.60;99.90;;;;;;5033765;28;20026;-76
2023/09/29 00:10:23;;;;;;;5.63;2.47;;;10.60;99.90;;;;;;5033396;28;20021;-75
2023/09/29 00:12:49;;;;;;;3.75;2.30;;;10.70;99.90;;;;;;5033660;28;20022;-75
2023/09/29 00:15:19;;;;;;;4.97;2.40;;;10.60;99.90;;;;;;5033640;28;20033;-75
2023/09/29 00:17:45;;;;;;;5.13;2.30;;;10.60;99.90;;;;;;5033893;28;20478;-75
2023/09/29 00:20:33;;;;;;;3.70;2.10;;;10.70;99.90;;;;;;5033462;28;20041;-76
2023/09/29 00:23:01;;;;;;;5.40;2.53;;;10.70;99.90;;;;;;5033220;28;20045;-76
2023/09/29 00:25:28;;;;;;;3.90;2.42;;;10.70;99.90;;;;;;5033173;28;20033;-76
2023/09/29 00:27:55;;;;;;;7.80;3.20;;;10.60;99.90;;;;;;5033467;28;20025;-76
2023/09/29 00:30:21;;;;;;;5.95;2.63;;;10.40;99.90;;;;;;5033361;28;20021;-76
2023/09/29 00:32:51;;;;;;;5.10;2.65;;;10.30;99.90;;;;;;5033401;28;20036;-76
2023/09/29 00:35:39;;;;;;;6.07;3.60;;;10.20;99.90;;;;;;5033598;28;20041;-76
2023/09/29 00:38:05;;;;;;;6.20;2.85;;;10.20;99.90;;;;;;5032660;28;20064;-76
2023/09/29 00:40:31;;;;;;;5.57;2.35;;;10.20;99.90;;;;;;5015267;28;20485;-76
2023/09/29 00:42:57;;;;;;;6.30;2.35;;;10.10;99.90;;;;;;5015608;28;20025;-75
2023/09/29 00:45:26;;;;;;;3.97;2.47;;;10.10;99.90;;;;;;5033193;28;20047;-75
2023/09/29 00:47:57;;;;;;;6.10;1.95;;;10.20;99.90;;;;;;5033552;28;20018;-76
2023/09/29 00:50:28;;;;;;;4.15;2.40;;;10.20;99.90;;;;;;5033221;28;20026;-76
2023/09/29 00:52:59;;;;;;;3.70;2.38;;;10.20;99.90;;;;;;5033578;28;20033;-75
2023/09/29 00:55:29;;;;;;;4.75;2.67;;;10.20;99.90;;;;;;5033008;28;20060;-76
2023/09/29 00:57:58;;;;;;;5.57;2.25;;;10.20;99.90;;;;;;5034035;28;20053;-76
2023/09/29 01:00:31;;;;;;;4.95;2.78;;;10.20;99.90;;;;;;5014465;28;20033;-76
2023/09/29 01:03:05;;;;;;;6.10;2.72;;;10.20;99.90;;;;;;5020099;28;20080;-75
2023/09/29 01:06:00;;;;;;;3.80;2.28;;;10.20;99.90;;;;;;5013349;28;20053;-75
2023/09/29 01:08:29;;;;;;;4.90;2.63;;;10.20;99.90;;;;;;5008706;28;20394;-76
2023/09/29 01:10:54;;;;;;;4.40;2.28;;;10.10;99.90;;;;;;5013055;28;20076;-76
2023/09/29 01:13:21;;;;;;;5.43;2.80;;;10.10;99.90;;;;;;5013386;28;20482;-75
2023/09/29 01:15:47;;;;;;;6.97;3.10;;;10.10;99.90;;;;;;5013386;28;20146;-75
2023/09/29 01:18:13;;;;;;;4.72;2.55;;;10.10;99.90;;;;;;5013376;28;20026;-75
2023/09/29 01:20:39;;;;;;;3.88;2.35;;;10.10;99.90;;;;;;5024334;28;20158;-75
2023/09/29 01:23:06;;;;;;;6.82;2.65;;;10.00;99.90;;;;;;5032980;28;20079;-75
2023/09/29 01:25:32;;;;;;;4.38;2.50;;;9.90;99.90;;;;;;5032646;28;20029;-75
2023/09/29 01:27:58;;;;;;;5.45;2.50;;;9.90;99.90;;;;;;5032990;28;20103;-75
2023/09/29 01:30:27;;;;;;;6.63;2.55;;;9.90;99.90;;;;;;5032876;28;20119;-76
2023/09/29 01:32:56;;;;;;;5.47;2.65;;;9.80;99.90;;;;;;5022502;28;20024;-75
2023/09/29 01:35:24;;;;;;;4.68;2.35;;;9.80;99.90;;;;;;5016730;28;20046;-76
2023/09/29 01:37:54;;;;;;;4.35;2.35;;;9.70;99.90;;;;;;5011188;28;20054;-78
2023/09/29 01:40:21;;;;;;;3.23;2.23;;;9.70;99.90;;;;;;5030932;28;20041;-78
2023/09/29 01:42:49;;;;;;;4.00;2.28;;;9.70;99.90;;;;;;5030892;28;20265;-78
2023/09/29 01:45:15;;;;;;;5.20;2.40;;;9.70;99.90;;;;;;5013084;28;20033;-78
2023/09/29 01:47:43;;;;;;;3.88;2.22;;;9.70;99.90;;;;;;5029285;28;20021;-79
2023/09/29 01:50:15;;;;;;;6.32;2.50;;;9.70;99.90;;;;;;5028379;28;20030;-78
2023/09/29 01:52:41;;;;;;;4.53;2.50;;;9.60;99.90;;;;;;5029533;28;20082;-79
2023/09/29 01:55:14;;;;;;;4.07;2.40;;;9.60;99.90;;;;;;5027721;28;20084;-76
2023/09/29 01:57:42;;;;;;;4.43;2.70;;;9.60;99.90;;;;;;5044388;28;20029;-78
2023/09/29 02:00:28;;;;;;;4.05;2.15;;;9.60;99.90;;;;;;5031058;28;20034;-78
2023/09/29 02:02:54;;;;;;;4.45;2.30;;;9.60;99.90;;;;;;5051826;28;20030;-78
2023/09/29 02:05:21;;;;;;;3.90;2.17;;;9.60;99.90;;;;;;5037809;28;20056;-79
2023/09/29 02:07:48;;;;;;;5.13;2.28;;;9.50;99.90;;;;;;5051226;28;20057;-79
2023/09/29 02:10:19;;;;;;;6.72;2.58;;;9.50;99.90;;;;;;5048726;28;20036;-78
2023/09/29 02:12:48;;;;;;;4.82;3.15;;;9.50;99.90;;;;;;5049225;28;20125;-78
2023/09/29 02:15:17;;;;;;;6.18;3.58;;;9.50;99.90;;;;;;5049809;28;20058;-78
2023/09/29 02:17:44;;;;;;;4.95;2.95;;;9.50;99.90;;;;;;5031583;28;20033;-78
2023/09/29 02:20:28;;;;;;;5.72;2.47;;;9.40;99.90;;;;;;5048225;28;20531;-78
2023/09/29 02:22:55;;;;;;;4.97;2.53;;;9.40;99.90;;;;;;5016542;28;20030;-79
2023/09/29 02:25:25;;;;;;;3.72;2.28;;;9.30;99.90;;;;;;5049591;28;20032;-78
2023/09/29 02:27:52;;;;;;;4.07;2.30;;;9.30;99.90;;;;;;5050047;28;20105;-78
2023/09/29 02:30:18;;;;;;;4.45;2.53;;;9.30;99.90;;;;;;5046113;28;20027;-78
2023/09/29 02:32:44;;;;;;;3.78;1.98;;;9.30;99.90;;;;;;5046138;28;20045;-78
2023/09/29 02:35:10;;;;;;;5.13;2.35;;;9.20;99.90;;;;;;5045289;28;20037;-78
2023/09/29 02:37:36;;;;;;;3.78;2.22;;;9.20;99.90;;;;;;5045038;28;20097;-78
2023/09/29 02:40:11;;;;;;;4.55;2.72;;;9.20;99.90;;;;;;5043705;28;20107;-78
2023/09/29 02:42:36;;;;;;;5.07;2.80;;;9.20;99.90;;;;;;5042854;28;20080;-78
2023/09/29 02:45:03;;;;;;;5.25;2.58;;;9.20;99.90;;;;;;5041665;28;20513;-78
2023/09/29 02:47:30;;;;;;;4.10;2.50;;;9.20;99.90;;;;;;5032686;28;20026;-78
2023/09/29 02:49:57;;;;;;;7.47;2.75;;;9.10;99.90;;;;;;5036938;28;20037;-78
2023/09/29 02:52:24;;;;;;;4.63;2.30;;;9.10;99.90;;;;;;5027859;28;20060;-78
2023/09/29 02:54:50;;;;;;;4.38;2.42;;;9.10;99.90;;;;;;5018708;28;20072;-78
2023/09/29 02:57:16;;;;;;;5.30;2.13;;;9.10;99.90;;;;;;5048601;28;20029;-78
2023/09/29 02:59:44;;;;;;;5.05;2.25;;;9.00;99.90;;;;;;5027017;28;20108;-78
2023/09/29 03:02:10;;;;;;;3.72;2.20;;;9.10;99.90;;;;;;5024869;28;20025;-78
2023/09/29 03:04:39;;;;;;;5.35;2.25;;;9.00;99.90;;;;;;5026805;28;20022;-79
2023/09/29 03:07:06;;;;;;;5.40;2.13;;;9.00;99.90;;;;;;5044133;28;20049;-78
2023/09/29 03:09:33;;;;;;;5.65;2.60;;;9.00;99.90;;;;;;5044442;28;20021;-78
2023/09/29 03:12:03;;;;;;;4.80;2.75;;;8.90;99.90;;;;;;5044004;28;20022;-78
2023/09/29 03:14:29;;;;;;;3.70;2.10;;;9.00;99.90;;;;;;5044314;28;20501;-79
2023/09/29 03:16:58;;;;;;;3.10;1.95;;;9.00;99.90;;;;;;5044606;28;20033;-79
2023/09/29 03:19:24;;;;;;;7.00;2.38;;;8.90;99.90;;;;;;5045895;28;20100;-78
2023/09/29 03:21:50;;;;;;;4.10;2.05;;;8.90;99.90;;;;;;5045922;28;20030;-78
2023/09/29 03:24:16;;;;;;;4.45;2.38;;;8.80;99.90;;;;;;5045544;28;20060;-78
2023/09/29 03:26:42;;;;;;;4.15;2.35;;;8.80;99.90;;;;;;5045322;28;20049;-78
2023/09/29 03:29:07;;;;;;;4.15;2.30;;;8.80;99.90;;;;;;5046504;28;20421;-78
2023/09/29 03:31:33;;;;;;;6.53;2.00;;;8.70;99.90;;;;;;5046623;28;20052;-78
2023/09/29 03:34:01;;;;;;;3.97;2.13;;;8.70;99.90;;;;;;5027854;28;20401;-79
2023/09/29 03:36:27;;;;;;;4.57;2.20;;;8.70;99.90;;;;;;5044848;28;20064;-79
2023/09/29 03:38:54;;;;;;;4.50;2.40;;;8.70;99.90;;;;;;5043701;28;20022;-78
2023/09/29 03:41:23;;;;;;;4.82;2.22;;;8.70;99.90;;;;;;5044079;28;20053;-78
2023/09/29 03:43:52;;;;;;;4.50;2.20;;;8.70;99.90;;;;;;5021445;28;20502;-78
2023/09/29 03:46:21;;;;;;;4.28;2.28;;;8.60;99.90;;;;;;5043963;28;20026;-79
2023/09/29 03:48:47;;;;;;;5.45;2.55;;;8.60;99.90;;;;;;5043894;28;20500;-78
2023/09/29 03:51:23;;;;;;;5.35;2.67;;;8.60;99.90;;;;;;5044507;28;20053;-79
2023/09/29 03:53:52;;;;;;;4.30;2.30;;;8.60;99.90;;;;;;5044203;28;20021;-79
2023/09/29 03:56:22;;;;;;;6.88;2.58;;;8.60;99.90;;;;;;5016432;28;20060;-78
2023/09/29 03:58:49;;;;;;;4.97;2.28;;;8.60;99.90;;;;;;5041431;28;20031;-78
2023/09/29 04:01:15;;;;;;;4.72;2.38;;;8.60;99.90;;;;;;5009290;28;20080;-78
2023/09/29 04:03:42;;;;;;;4.60;2.33;;;8.60;99.90;;;;;;5042980;28;20033;-78
2023/09/29 04:06:08;;;;;;;5.20;2.67;;;8.50;99.90;;;;;;5042617;28;20055;-78
2023/09/29 04:08:33;;;;;;;6.47;2.83;;;8.50;99.90;;;;;;5008802;28;20030;-77
2023/09/29 04:10:59;;;;;;;4.47;2.60;;;8.40;99.90;;;;;;5036266;28;20083;-78
2023/09/29 04:13:25;;;;;;;4.90;2.35;;;8.40;99.90;;;;;;5042493;28;20494;-78
2023/09/29 04:15:51;;;;;;;5.93;2.78;;;8.40;99.90;;;;;;5042560;28;20393;-78
2023/09/29 04:18:17;;;;;;;5.93;2.58;;;8.40;99.90;;;;;;5041720;28;20068;-78
2023/09/29 04:20:42;;;;;;;4.43;2.22;;;8.40;99.90;;;;;;5040509;28;20033;-79
2023/09/29 04:23:08;;;;;;;3.88;2.30;;;8.40;99.90;;;;;;5023944;28;20038;-78
2023/09/29 04:25:34;;;;;;;5.07;2.10;;;8.40;99.90;;;;;;5018018;28;20036;-78
2023/09/29 04:28:00;;;;;;;4.32;2.30;;;8.40;99.90;;;;;;5040532;28;20025;-78
2023/09/29 04:30:25;;;;;;;5.35;2.63;;;8.30;99.90;;;;;;5013794;28;20029;-78
2023/09/29 04:32:52;;;;;;;5.53;2.88;;;8.30;99.90;;;;;;5035389;28;20044;-78
2023/09/29 04:35:18;;;;;;;4.38;2.47;;;8.30;99.90;;;;;;5029483;28;20038;-78
2023/09/29 04:37:44;;;;;;;5.15;2.58;;;8.30;99.90;;;;;;5025369;28;20025;-78
2023/09/29 04:40:11;;;;;;;6.38;2.95;;;8.20;99.90;;;;;;5041141;28;20036;-79
2023/09/29 04:42:37;;;;;;;3.85;2.38;;;8.20;99.90;;;;;;5039076;28;20117;-78
2023/09/29 04:45:04;;;;;;;5.53;2.50;;;8.20;99.90;;;;;;5013385;28;20117;-78
2023/09/29 04:47:30;;;;;;;5.57;2.35;;;8.20;99.90;;;;;;5014615;28;20041;-78
2023/09/29 04:49:56;;;;;;;4.88;2.30;;;8.20;99.90;;;;;;5025875;28;20118;-78
2023/09/29 04:52:22;;;;;;;4.47;2.60;;;8.20;99.90;;;;;;5026125;28;20038;-78
2023/09/29 04:54:48;;;;;;;5.55;2.63;;;8.20;99.90;;;;;;5023439;28;20025;-79
2023/09/29 04:57:14;;;;;;;5.97;2.50;;;8.10;99.90;;;;;;5020503;28;20139;-79
2023/09/29 04:59:40;;;;;;;4.65;2.42;;;8.00;99.90;;;;;;5029151;28;20450;-79
2023/09/29 05:02:05;;;;;;;4.40;2.17;;;8.00;99.90;;;;;;5004971;28;20167;-78
2023/09/29 05:04:32;;;;;;;4.93;2.25;;;8.00;99.90;;;;;;5019608;28;20032;-78
2023/09/29 05:06:58;;;;;;;5.05;2.50;;;8.00;99.90;;;;;;5018874;28;20056;-78
2023/09/29 05:09:23;;;;;;;4.00;2.28;;;8.00;99.90;;;;;;5040067;28;20497;-79
2023/09/29 05:11:49;;;;;;;4.13;2.38;;;7.90;99.90;;;;;;5040894;28;20034;-79
2023/09/29 05:14:15;;;;;;;5.03;2.55;;;7.80;99.90;;;;;;5042154;28;20474;-79
2023/09/29 05:16:40;;;;;;;5.03;2.50;;;7.80;99.90;;;;;;5023785;28;20029;-78
2023/09/29 05:19:06;;;;;;;7.40;3.22;;;7.80;99.90;;;;;;5041252;28;20164;-78
2023/09/29 05:21:32;;;;;;;7.95;3.70;;;7.80;99.90;;;;;;5048486;28;20086;-78
2023/09/29 05:23:58;;;;;;;7.28;3.17;;;7.80;99.90;;;;;;5048613;28;20029;-78
2023/09/29 05:26:24;;;;;;;10.07;5.72;;;7.80;99.90;;;;;;5039830;28;20030;-78
2023/09/29 05:28:51;;;;;;;16.30;8.15;;;7.80;99.90;;;;;;5039359;28;20456;-78
2023/09/29 05:31:17;;;;;;;16.80;7.85;;;7.80;99.90;;;;;;5038818;28;20421;-77
2023/09/29 05:33:43;;;;;;;10.05;5.25;;;7.80;99.90;;;;;;5039152;28;20030;-78
2023/09/29 05:36:08;;;;;;;10.35;4.13;;;7.80;99.90;;;;;;5038423;28;20402;-78
2023/09/29 05:38:34;;;;;;;6.45;3.42;;;7.90;99.90;;;;;;5037980;28;20094;-78
2023/09/29 05:40:59;;;;;;;8.32;3.00;;;7.80;99.90;;;;;;5037464;28;20088;-77
2023/09/29 05:43:26;;;;;;;5.57;2.72;;;7.90;99.90;;;;;;5038084;28;20040;-78
2023/09/29 05:45:51;;;;;;;6.43;2.38;;;7.80;99.90;;;;;;5037169;28;20478;-78
2023/09/29 05:48:17;;;;;;;4.88;2.60;;;7.80;99.90;;;;;;5037762;28;20038;-77
2023/09/29 05:50:43;;;;;;;5.95;2.47;;;7.80;99.90;;;;;;5019703;28;20030;-77
2023/09/29 05:53:09;;;;;;;6.18;2.30;;;7.80;99.90;;;;;;5037376;28;20489;-77
2023/09/29 05:55:34;;;;;;;6.80;2.67;;;7.80;99.90;;;;;;5037123;28;20030;-78
2023/09/29 05:58:01;;;;;;;4.05;1.88;;;7.80;99.90;;;;;;5019768;28;20036;-78
2023/09/29 06:00:27;;;;;;;4.93;2.65;;;7.80;99.90;;;;;;5037708;28;20033;-78
2023/09/29 06:02:53;;;;;;;4.93;2.90;;;7.90;99.90;;;;;;5037910;28;20033;-78
2023/09/29 06:05:20;;;;;;;6.75;2.90;;;7.90;99.90;;;;;;5037535;28;20033;-78
2023/09/29 06:07:45;;;;;;;4.00;2.50;;;7.90;99.90;;;;;;5038509;28;20036;-78
2023/09/29 06:10:11;;;;;;;5.72;2.60;;;7.90;99.90;;;;;;5037989;28;20108;-78
2023/09/29 06:12:37;;;;;;;4.00;2.22;;;7.90;99.90;;;;;;5037792;28;20089;-78
2023/09/29 06:15:04;;;;;;;6.82;2.47;;;7.90;99.90;;;;;;5038216;28;20068;-78
2023/09/29 06:17:30;;;;;;;6.65;3.00;;;8.00;99.90;;;;;;5020697;28;20389;-78
2023/09/29 06:19:56;;;;;;;4.18;2.60;;;8.00;99.90;;;;;;5038562;28;20392;-78
2023/09/29 06:22:22;;;;;;;6.25;3.00;;;8.10;99.90;;;;;;5038497;28;20030;-78
2023/09/29 06:24:47;;;;;;;5.32;2.80;;;8.20;99.90;;;;;;5039623;28;20029;-78
2023/09/29 06:27:14;;;;;;;5.43;2.95;;;8.20;99.90;;;;;;5038752;28;20041;-78
2023/09/29 06:29:40;;;;;;;4.78;2.80;;;8.20;99.90;;;;;;5039358;28;20033;-78
2023/09/29 06:32:08;;;;;;;5.47;2.90;;;8.20;99.90;;;;;;5039253;28;20025;-78
2023/09/29 06:34:37;;;;;;;5.50;2.92;;;8.30;99.90;;;;;;5000050;28;1138686;-78
2023/09/29 06:37:03;;;;;;;5.53;3.13;;;8.40;99.90;;;;;;5040468;28;20032;-78
2023/09/29 06:39:29;;;;;;;4.55;2.80;;;8.40;99.90;;;;;;5040226;28;20026;-78
2023/09/29 06:41:55;;;;;;;5.63;3.13;;;8.50;99.90;;;;;;5040039;28;20029;-78
2023/09/29 06:44:24;;;;;;;6.28;3.33;;;8.50;99.90;;;;;;5041037;28;20048;-78
2023/09/29 06:46:50;;;;;;;5.85;3.15;;;8.60;99.90;;;;;;5039865;28;20033;-78
2023/09/29 06:49:15;;;;;;;6.70;3.47;;;8.60;99.90;;;;;;5040489;28;20060;-78
2023/09/29 06:51:41;;;;;;;8.68;4.60;;;8.70;99.90;;;;;;5040636;28;20022;-78
2023/09/29 06:54:07;;;;;;;10.95;5.40;;;8.80;99.90;;;;;;5040296;28;20025;-78
2023/09/29 06:56:33;;;;;;;7.85;4.50;;;8.90;99.90;;;;;;5040259;28;20052;-78
2023/09/29 06:58:59;;;;;;;13.57;5.25;;;8.90;99.90;;;;;;5040735;28;20030;-78
2023/09/29 07:01:26;;;;;;;9.13;4.40;;;9.00;99.90;;;;;;5040971;28;20036;-78
2023/09/29 07:03:52;;;;;;;7.40;4.25;;;9.10;99.90;;;;;;5040415;28;20030;-78
2023/09/29 07:06:18;;;;;;;7.60;4.25;;;9.20;99.90;;;;;;5041394;28;20084;-78
2023/09/29 07:08:45;;;;;;;7.75;3.88;;;9.30;99.90;;;;;;5021589;28;20021;-78
2023/09/29 07:11:10;;;;;;;7.93;3.88;;;9.30;99.90;;;;;;5038925;28;20026;-78
2023/09/29 07:13:36;;;;;;;7.35;3.97;;;9.40;99.90;;;;;;5021535;28;20021;-78
2023/09/29 07:16:03;;;;;;;9.48;4.05;;;9.50;99.90;;;;;;5040312;28;20030;-78
2023/09/29 07:18:29;;;;;;;9.23;4.32;;;9.60;99.90;;;;;;5040233;28;20036;-78
2023/09/29 07:20:57;;;;;;;5.75;3.83;;;9.70;99.90;;;;;;5040098;28;20025;-78
2023/09/29 07:23:23;;;;;;;6.22;3.67;;;9.80;99.90;;;;;;5040017;28;20038;-78
2023/09/29 07:25:51;;;;;;;6.57;3.80;;;9.90;99.90;;;;;;5040202;28;20036;-78
2023/09/29 07:28:17;;;;;;;7.32;3.60;;;10.00;99.90;;;;;;5040555;28;20398;-78
2023/09/29 07:30:44;;;;;;;6.25;3.70;;;10.10;99.90;;;;;;5039633;28;20056;-78
2023/09/29 07:33:10;;;;;;;8.27;4.55;;;10.20;99.90;;;;;;5041092;28;20033;-78
2023/09/29 07:35:36;;;;;;;6.68;3.50;;;10.30;99.90;;;;;;5040440;28;20038;-78
2023/09/29 07:38:02;;;;;;;6.20;4.25;;;10.50;99.90;;;;;;5040695;28;20029;-79
2023/09/29 07:40:29;;;;;;;8.07;4.65;;;10.60;99.90;;;;;;5040224;28;20397;-78
2023/09/29 07:42:54;;;;;;;7.90;4.22;;;10.70;99.90;;;;;;5040623;28;20032;-78
2023/09/29 07:45:20;;;;;;;9.07;4.10;;;10.90;99.90;;;;;;5040930;28;20529;-78
2023/09/29 07:47:46;;;;;;;7.22;4.55;;;11.00;99.90;;;;;;5041339;28;20030;-78
2023/09/29 07:50:12;;;;;;;7.38;4.57;;;11.10;99.90;;;;;;5040680;28;20026;-78
2023/09/29 07:52:39;;;;;;;8.27;4.20;;;11.30;99.90;;;;;;5040470;28;20022;-78
2023/09/29 07:55:09;;;;;;;8.20;4.53;;;11.40;99.90;;;;;;5040937;28;20470;-78
2023/09/29 07:57:35;;;;;;;6.77;4.20;;;11.60;99.90;;;;;;5040520;28;20026;-78
2023/09/29 08:00:01;;;;;;;11.18;5.85;;;11.70;99.90;;;;;;5040476;28;20255;-78
2023/09/29 08:02:27;;;;;;;10.23;6.13;;;11.90;99.90;;;;;;5041159;28;20576;-78
2023/09/29 08:04:53;;;;;;;11.00;6.72;;;12.00;99.90;;;;;;5040615;28;20077;-78
2023/09/29 08:07:22;;;;;;;10.88;6.65;;;12.20;99.90;;;;;;5040984;28;20060;-79
2023/09/29 08:09:48;;;;;;;14.90;6.90;;;12.30;99.90;;;;;;5040707;28;20052;-78
2023/09/29 08:12:14;;;;;;;11.82;6.40;;;12.40;99.90;;;;;;5023112;28;20026;-78
2023/09/29 08:14:40;;;;;;;13.07;6.50;;;12.60;99.90;;;;;;5023706;28;20083;-79
2023/09/29 08:17:06;;;;;;;11.07;5.72;;;12.70;99.90;;;;;;5040961;28;20025;-79
2023/09/29 08:19:33;;;;;;;10.15;6.43;;;12.90;99.90;;;;;;5041094;28;20497;-78
2023/09/29 08:21:59;;;;;;;11.45;6.55;;;13.00;99.90;;;;;;5040509;28;20036;-78
2023/09/29 08:24:25;;;;;;;10.02;5.82;;;13.10;99.90;;;;;;5041508;28;20037;-79
2023/09/29 08:26:50;;;;;;;11.32;6.38;;;13.20;99.90;;;;;;5040502;28;20089;-79
2023/09/29 08:29:16;;;;;;;11.30;7.25;;;13.40;99.90;;;;;;5022736;28;20076;-78
2023/09/29 08:31:45;;;;;;;11.95;7.75;;;13.50;99.90;;;;;;5041066;28;20029;-78
2023/09/29 08:34:10;;;;;;;12.75;7.38;;;13.70;99.90;;;;;;5040882;28;20030;-79
2023/09/29 08:36:36;;;;;;;10.82;6.80;;;13.80;99.90;;;;;;5040982;28;20106;-79
2023/09/29 08:39:02;;;;;;;13.07;7.65;;;13.90;99.90;;;;;;5040553;28;20030;-78
2023/09/29 08:41:29;;;;;;;10.82;6.22;;;14.10;99.90;;;;;;5045212;28;20060;-78
2023/09/29 08:43:55;;;;;;;10.15;5.50;;;14.20;99.90;;;;;;5048461;28;20025;-79
2023/09/29 08:46:21;;;;;;;13.80;7.88;;;14.40;99.90;;;;;;5043559;28;20038;-79
2023/09/29 08:48:48;;;;;;;15.13;8.38;;;14.50;99.90;;;;;;5039153;28;20089;-79
2023/09/29 08:51:15;;;;;;;10.18;6.60;;;14.60;99.90;;;;;;5020360;28;20032;-78
2023/09/29 08:53:44;;;;;;;11.23;6.65;;;14.80;99.90;;;;;;5038630;28;20025;-79
2023/09/29 08:56:16;;;;;;;10.57;7.25;;;14.90;99.90;;;;;;5038867;28;20025;-78
2023/09/29 08:58:42;;;;;;;10.73;5.97;;;15.10;99.90;;;;;;5038701;28;20116;-78
2023/09/29 09:01:11;;;;;;;9.85;5.35;;;15.20;99.90;;;;;;5038968;28;20033;-79
2023/09/29 09:03:37;;;;;;;7.60;4.82;;;15.30;99.90;;;;;;5038645;28;20057;-79
2023/09/29 09:06:21;;;;;;;6.72;4.25;;;15.40;99.90;;;;;;5039060;28;20030;-79
2023/09/29 09:08:49;;;;;;;6.45;4.00;;;15.60;99.90;;;;;;5040242;28;20032;-79
2023/09/29 09:11:15;;;;;;;7.72;4.22;;;15.70;99.90;;;;;;5039366;28;20505;-79
2023/09/29 09:13:40;;;;;;;7.97;4.35;;;15.80;99.90;;;;;;5039672;28;20056;-79
2023/09/29 09:16:07;;;;;;;6.90;4.15;;;15.90;99.90;;;;;;5039540;28;20087;-79
2023/09/29 09:18:33;;;;;;;7.15;3.92;;;16.10;99.90;;;;;;5039607;28;20450;-79
2023/09/29 09:20:58;;;;;;;6.72;4.20;;;16.20;99.90;;;;;;5039787;28;20049;-79
2023/09/29 09:23:24;;;;;;;7.05;4.60;;;16.40;99.90;;;;;;5038478;28;20060;-78
2023/09/29 09:25:51;;;;;;;11.13;5.38;;;16.50;99.90;;;;;;5038725;28;20116;-79
2023/09/29 09:28:20;;;;;;;12.38;5.40;;;16.70;99.90;;;;;;5038639;28;20024;-78
2023/09/29 09:30:47;;;;;;;10.38;6.25;;;16.90;99.90;;;;;;5046373;28;20037;-78
2023/09/29 09:33:21;;;;;;;9.77;6.60;;;17.00;99.90;;;;;;5038812;28;20459;-78
2023/09/29 09:35:50;;;;;;;11.73;7.38;;;17.10;99.90;;;;;;5036599;28;20045;-79
2023/09/29 09:38:15;;;;;;;14.70;7.63;;;17.30;99.90;;;;;;5037049;28;20101;-79
2023/09/29 09:40:44;;;;;;;10.45;6.22;;;17.40;99.90;;;;;;5019186;28;20560;-79
2023/09/29 09:43:10;;;;;;;8.77;5.20;;;17.60;99.90;;;;;;5036872;28;20033;-78
2023/09/29 09:45:43;;;;;;;12.35;6.78;;;17.70;99.90;;;;;;5037014;28;20053;-79
2023/09/29 09:48:10;;;;;;;10.55;6.32;;;17.80;99.90;;;;;;5037505;28;20076;-78
2023/09/29 09:50:40;;;;;;;7.68;5.32;;;17.90;99.90;;;;;;5036709;28;20046;-79
2023/09/29 09:53:08;;;;;;;14.00;7.20;;;18.00;99.90;;;;;;5036724;28;20026;-78
2023/09/29 09:55:40;;;;;;;13.00;6.85;;;18.10;99.90;;;;;;5040689;28;20037;-79
2023/09/29 09:58:16;;;;;;;11.63;7.47;;;18.20;99.90;;;;;;5040463;28;20064;-78
2023/09/29 10:00:45;;;;;;;9.95;6.45;;;18.40;99.90;;;;;;5039486;28;20047;-79
2023/09/29 10:03:13;;;;;;;9.20;5.72;;;18.50;99.90;;;;;;5040177;28;20029;-78
2023/09/29 10:05:51;;;;;;;8.15;5.35;;;18.60;99.90;;;;;;5041571;28;20021;-79
2023/09/29 10:08:27;;;;;;;7.00;4.80;;;18.70;99.90;;;;;;5041281;28;20021;-79
2023/09/29 10:10:53;;;;;;;7.03;4.80;;;18.80;99.90;;;;;;5041214;28;20359;-79
2023/09/29 10:13:19;;;;;;;10.25;5.78;;;19.00;99.90;;;;;;5041510;28;20017;-79
2023/09/29 10:15:56;;;;;;;10.27;5.22;;;19.00;99.90;;;;;;5041732;28;20035;-79
2023/09/29 10:18:22;;;;;;;7.65;4.47;;;19.20;99.90;;;;;;5042138;28;20108;-79
2023/09/29 10:21:00;;;;;;;5.22;3.63;;;19.20;99.90;;;;;;5041557;28;20039;-79
2023/09/29 10:23:26;;;;;;;8.38;4.43;;;19.30;99.90;;;;;;5041418;28;20027;-79
2023/09/29 10:25:59;;;;;;;8.32;4.40;;;19.50;99.90;;;;;;5041871;28;20444;-79
2023/09/29 10:28:36;;;;;;;6.43;3.90;;;19.60;99.90;;;;;;5040905;28;20028;-79
2023/09/29 10:31:13;;;;;;;8.02;5.40;;;19.80;99.90;;;;;;5041998;28;20025;-79
2023/09/29 10:33:53;;;;;;;7.63;4.20;;;19.90;99.90;;;;;;5041637;28;20033;-79
2023/09/29 10:36:30;;;;;;;6.20;4.35;;;20.00;99.90;;;;;;5041491;28;20033;-79
2023/09/29 10:38:58;;;;;;;8.80;4.38;;;20.10;99.90;;;;;;5041668;28;20033;-79
2023/09/29 10:41:25;;;;;;;6.97;4.72;;;20.20;99.90;;;;;;5041793;28;20022;-78
2023/09/29 10:43:57;;;;;;;10.30;5.28;;;20.30;99.90;;;;;;5041040;28;20030;-79
2023/09/29 10:46:24;;;;;;;9.82;5.10;;;20.40;99.90;;;;;;5041914;28;20022;-79
2023/09/29 10:48:52;;;;;;;8.57;5.05;;;20.50;99.90;;;;;;5043417;28;20025;-80
2023/09/29 10:51:32;;;;;;;11.15;5.85;;;20.50;99.90;;;;;;5042997;28;20048;-80
2023/09/29 10:54:02;;;;;;;8.75;5.20;;;20.70;99.90;;;;;;5043707;28;20073;-80
2023/09/29 10:56:28;;;;;;;8.53;5.03;;;20.80;99.90;;;;;;5044065;28;20029;-80
2023/09/29 10:58:55;;;;;;;8.07;5.03;;;20.90;99.90;;;;;;5043245;28;20028;-80
2023/09/29 11:01:33;;;;;;;7.85;4.97;;;21.00;99.90;;;;;;5043118;28;20485;-80
2023/09/29 11:04:01;;;;;;;7.20;4.22;;;21.00;99.90;;;;;;5025152;28;20037;-80
2023/09/29 11:06:27;;;;;;;7.15;4.22;;;21.20;99.90;;;;;;5041971;28;20026;-80
2023/09/29 11:08:54;;;;;;;8.05;5.00;;;21.20;99.90;;;;;;5042634;28;20108;-80
2023/09/29 11:11:20;;;;;;;9.45;5.10;;;21.30;99.90;;;;;;5042105;28;20025;-79
2023/09/29 11:13:58;;;;;;;8.23;4.10;;;21.40;99.90;;;;;;5042830;28;20052;-80
2023/09/29 11:16:28;;;;;;;6.97;4.53;;;21.50;99.90;;;;;;5043003;28;20033;-79
2023/09/29 11:18:57;;;;;;;6.55;3.75;;;21.60;99.90;;;;;;5041762;28;20033;-79
2023/09/29 11:21:36;;;;;;;5.35;3.58;;;21.70;99.90;;;;;;5040232;28;20036;-79
2023/09/29 11:24:07;;;;;;;7.22;4.07;;;21.80;99.80;;;;;;5023795;28;20037;-79
2023/09/29 11:26:33;;;;;;;6.60;3.63;;;21.90;99.90;;;;;;5040380;28;20022;-79
2023/09/29 11:28:59;;;;;;;6.15;3.80;;;22.00;99.90;;;;;;5017471;28;20028;-79
2023/09/29 11:31:25;;;;;;;7.22;3.58;;;22.00;99.90;;;;;;5019231;28;20022;-79
2023/09/29 11:33:51;;;;;;;7.25;4.00;;;22.10;99.60;;;;;;5041034;28;20030;-80
2023/09/29 11:36:19;;;;;;;6.80;3.67;;;22.10;98.90;;;;;;5039503;28;20033;-80
2023/09/29 11:38:46;;;;;;;4.72;3.58;;;22.20;99.90;;;;;;5041263;28;20022;-80
2023/09/29 11:41:13;;;;;;;6.03;3.90;;;22.30;99.90;;;;;;5042441;28;20049;-80
2023/09/29 11:43:40;;;;;;;5.38;3.50;;;22.40;99.90;;;;;;5041512;28;20029;-80
2023/09/29 11:46:06;;;;;;;6.07;3.72;;;22.60;99.90;;;;;;5041536;28;20490;-80
2023/09/29 11:48:32;;;;;;;7.20;3.90;;;22.60;99.90;;;;;;5023975;28;20029;-80
2023/09/29 11:50:58;;;;;;;5.43;3.25;;;22.80;99.90;;;;;;5041005;28;20567;-80
2023/09/29 11:53:24;;;;;;;6.75;3.40;;;22.90;99.90;;;;;;5041503;28;20482;-80
2023/09/29 11:55:50;;;;;;;5.60;3.42;;;23.00;99.00;;;;;;5041197;28;20121;-80
2023/09/29 11:58:16;;;;;;;5.47;3.60;;;23.20;98.90;;;;;;5040317;28;20025;-80
2023/09/29 12:00:41;;;;;;;8.15;3.60;;;23.20;96.30;;;;;;5041005;28;20030;-79
2023/09/29 12:03:12;;;;;;;4.68;3.17;;;23.20;96.70;;;;;;5027484;28;20044;-80
2023/09/29 12:05:40;;;;;;;6.03;3.03;;;23.30;96.90;;;;;;5043139;28;20091;-80
2023/09/29 12:08:06;;;;;;;5.22;2.88;;;23.40;94.70;;;;;;5022129;28;20025;-80
2023/09/29 12:10:32;;;;;;;5.10;2.80;;;23.40;94.60;;;;;;5040584;28;20040;-80
2023/09/29 12:12:59;;;;;;;5.72;2.90;;;23.60;94.80;;;;;;5039274;28;20389;-80
2023/09/29 12:15:25;;;;;;;8.23;3.20;;;23.70;95.60;;;;;;5040151;28;20033;-80
2023/09/29 12:17:51;;;;;;;7.00;3.63;;;23.80;91.60;;;;;;5040047;28;20051;-81
2023/09/29 12:20:18;;;;;;;4.90;3.28;;;23.70;94.00;;;;;;5040157;28;20089;-80
2023/09/29 12:22:45;;;;;;;7.05;3.35;;;23.80;92.70;;;;;;5039248;28;20032;-80
2023/09/29 12:25:13;;;;;;;6.13;3.40;;;23.90;94.00;;;;;;5039606;28;20037;-80
2023/09/29 12:27:40;;;;;;;6.00;3.45;;;24.00;93.30;;;;;;5039074;28;20030;-80
2023/09/29 12:30:12;;;;;;;6.55;3.15;;;24.20;94.40;;;;;;5039607;28;20022;-80
2023/09/29 12:32:39;;;;;;;6.07;3.50;;;24.20;92.40;;;;;;5022694;28;20401;-79
2023/09/29 12:35:05;;;;;;;7.07;3.40;;;24.30;91.80;;;;;;5038689;28;20025;-79
2023/09/29 12:37:31;;;;;;;7.13;3.53;;;24.30;91.60;;;;;;5039333;28;20025;-80
2023/09/29 12:39:57;;;;;;;5.70;3.00;;;24.40;93.10;;;;;;5021207;28;20110;-80
2023/09/29 12:42:23;;;;;;;10.90;3.58;;;24.40;90.00;;;;;;5038937;28;20095;-80
2023/09/29 12:44:49;;;;;;;6.53;3.65;;;24.50;90.80;;;;;;5038821;28;20482;-80
2023/09/29 12:47:15;;;;;;;5.75;3.33;;;24.60;91.20;;;;;;5021543;28;20046;-80
2023/09/29 12:49:41;;;;;;;5.03;2.92;;;24.60;91.60;;;;;;5039456;28;20522;-80
2023/09/29 12:52:09;;;;;;;4.75;3.15;;;24.70;91.10;;;;;;5038741;28;20108;-80